CheckWX is a tool to help pilots better visualize weather data.  It is not intended as a substitute for an official pre-flight weather briefing.

11:29:48 UTC

KPBX METAR
Pike County-Hatcher Field Airport
Pikeville, Kentucky, USA
Current

35 mins ago

KPBX 281055Z AUTO 00000KT 10SM SCT012 SCT017 OVC024 01/M01 A3001 RMK AO2 T00051011
Observed
Jan-28 @ 10:55 UTC
Visibility
10 SM
Flight Rules
MVFR
Cloud Levels
  • Scattered at 1,200' AGL
  • Scattered at 1,700' AGL
  • Overcast at 2,400' AGL
Temperature
C / 34°F
Dewpoint
-1°C / 30°F
Humidity
87%
Altimeter
30.01" Hg
Pressure
1016.22 hPa
Previous

55 mins ago

KPBX 281035Z AUTO 00000KT 10SM SCT014 OVC024 01/M01 A3001 RMK AO2 T00051012
Observed
Jan-28 @ 10:35 UTC
Visibility
10 SM
Flight Rules
MVFR
Cloud Levels
  • Scattered at 1,400' AGL
  • Overcast at 2,400' AGL
Temperature
C / 34°F
Dewpoint
-1°C / 30°F
Humidity
87%
Altimeter
30.01" Hg
Pressure
1016.22 hPa
Previous

1 hour ago

KPBX 281015Z AUTO 00000KT 10SM OVC026 01/M01 A3000 RMK AO2 T00051014
Observed
Jan-28 @ 10:15 UTC
Visibility
10 SM
Flight Rules
MVFR
Cloud Levels
  • Overcast at 2,600' AGL
Temperature
C / 34°F
Dewpoint
-1°C / 30°F
Humidity
87%
Altimeter
30" Hg
Pressure
1015.92 hPa